createdAt,value
2024-03-10T00:00:22.176Z,78.13
2024-03-10T00:03:11.055Z,78.96
2024-03-10T00:05:41.877Z,79.09
2024-03-10T00:08:09.725Z,77.13
2024-03-10T00:10:42.804Z,76.59
2024-03-10T00:13:10.874Z,78.95
2024-03-10T00:15:39.030Z,79.90
2024-03-10T00:18:07.589Z,80.58
2024-03-10T00:20:35.708Z,80.75
2024-03-10T00:23:05.001Z,78.51
2024-03-10T00:25:32.856Z,80.23
2024-03-10T00:28:00.619Z,78.54
2024-03-10T00:30:29.461Z,80.20
2024-03-10T00:32:57.467Z,81.59
2024-03-10T00:35:25.309Z,81.70
2024-03-10T00:37:53.917Z,80.08
2024-03-10T00:40:21.745Z,80.62
2024-03-10T00:42:49.473Z,80.29
2024-03-10T00:45:17.332Z,80.92
2024-03-10T00:47:46.513Z,76.83
2024-03-10T00:50:15.877Z,78.45
2024-03-10T00:52:43.926Z,81.71
2024-03-10T00:55:12.073Z,79.80
2024-03-10T00:57:40.034Z,78.99
2024-03-10T01:00:11.715Z,79.74
2024-03-10T01:02:39.983Z,80.13
2024-03-10T01:05:08.958Z,77.91
2024-03-10T01:07:36.877Z,77.06
2024-03-10T01:10:05.059Z,78.16
2024-03-10T01:12:32.835Z,77.30
2024-03-10T01:15:00.595Z,76.79
2024-03-10T01:17:28.756Z,75.71
2024-03-10T01:19:58.169Z,75.87
2024-03-10T01:22:26.088Z,77.40
2024-03-10T01:24:55.401Z,77.44
2024-03-10T01:27:23.185Z,77.21
2024-03-10T01:29:52.232Z,77.14
2024-03-10T01:32:20.136Z,76.70
2024-03-10T01:34:48.029Z,77.26
2024-03-10T01:37:16.862Z,77.65
2024-03-10T01:39:44.681Z,76.96
2024-03-10T01:42:12.569Z,78.07
2024-03-10T01:44:40.474Z,79.45
2024-03-10T01:47:09.120Z,82.03
2024-03-10T01:49:38.012Z,82.41
2024-03-10T01:52:07.966Z,84.53
2024-03-10T01:54:36.883Z,81.25
2024-03-10T01:57:06.252Z,85.02
2024-03-10T01:59:35.228Z,81.29
2024-03-10T02:02:06.263Z,86.87
2024-03-10T02:04:34.320Z,87.27
2024-03-10T02:07:03.054Z,89.58
2024-03-10T02:09:32.097Z,89.69
2024-03-10T02:12:00.354Z,89.56
2024-03-10T02:14:28.192Z,89.81
2024-03-10T02:16:55.972Z,89.54
2024-03-10T02:19:23.763Z,89.91
2024-03-10T02:21:51.501Z,84.84
2024-03-10T02:24:25.541Z,85.95
2024-03-10T02:26:53.331Z,89.23
2024-03-10T02:29:22.634Z,87.35
2024-03-10T02:32:10.273Z,88.07
2024-03-10T02:34:57.939Z,88.26
2024-03-10T02:37:44.574Z,87.66
2024-03-10T02:40:31.271Z,86.35
2024-03-10T02:43:17.968Z,87.73
2024-03-10T02:46:04.229Z,88.09
2024-03-10T02:48:33.104Z,87.52
2024-03-10T02:51:00.927Z,86.53
2024-03-10T02:53:28.761Z,85.57
2024-03-10T02:55:56.905Z,85.81
2024-03-10T02:58:24.628Z,84.44
2024-03-10T03:00:52.388Z,85.66
2024-03-10T03:03:20.189Z,85.44
2024-03-10T03:05:49.131Z,84.89
2024-03-10T03:08:17.805Z,87.03
2024-03-10T03:10:46.151Z,85.54
2024-03-10T03:13:13.985Z,86.83
2024-03-10T03:15:41.718Z,87.12
2024-03-10T03:18:09.686Z,86.23
2024-03-10T03:20:37.545Z,87.21
2024-03-10T03:23:05.606Z,86.37
2024-03-10T03:25:34.045Z,85.89
2024-03-10T03:28:02.083Z,86.75
2024-03-10T03:30:31.543Z,86.42
2024-03-10T03:32:59.463Z,84.17
2024-03-10T03:35:27.442Z,82.21
2024-03-10T03:37:55.394Z,84.48
2024-03-10T03:40:24.524Z,86.90
2024-03-10T03:42:52.431Z,85.95
2024-03-10T03:45:20.292Z,85.18
2024-03-10T03:47:48.090Z,85.89
2024-03-10T03:50:16.683Z,84.78
2024-03-10T03:52:44.631Z,84.77
2024-03-10T03:55:12.539Z,86.08
2024-03-10T03:57:40.305Z,85.47
2024-03-10T04:00:13.462Z,85.61
2024-03-10T04:02:41.457Z,86.57
2024-03-10T04:05:09.810Z,86.38
2024-03-10T04:07:37.606Z,86.45
2024-03-10T04:10:07.340Z,85.86
2024-03-10T04:12:35.063Z,85.31
2024-03-10T04:15:03.798Z,85.91
2024-03-10T04:17:33.261Z,84.38
2024-03-10T04:20:01.506Z,85.40
2024-03-10T04:22:29.513Z,84.29
2024-03-10T04:24:57.370Z,83.47
2024-03-10T04:27:25.351Z,83.66
2024-03-10T04:29:53.158Z,84.34
2024-03-10T04:32:20.953Z,84.71
2024-03-10T04:34:48.786Z,84.59
2024-03-10T04:37:16.600Z,84.54
2024-03-10T04:39:44.300Z,84.48
2024-03-10T04:42:11.964Z,83.51
2024-03-10T04:44:39.714Z,85.04
2024-03-10T04:47:07.573Z,85.21
2024-03-10T04:49:35.355Z,84.28
2024-03-10T04:52:03.423Z,83.51
2024-03-10T04:54:32.220Z,84.23
2024-03-10T04:57:00.863Z,83.48
2024-03-10T04:59:28.951Z,83.18
2024-03-10T05:01:58.095Z,82.99
2024-03-10T05:04:25.916Z,84.34
2024-03-10T05:06:53.658Z,82.99
2024-03-10T05:09:21.627Z,83.07
2024-03-10T05:11:49.553Z,83.70
2024-03-10T05:14:17.539Z,82.38
2024-03-10T05:16:45.421Z,83.83
2024-03-10T05:19:13.247Z,83.84
2024-03-10T05:21:46.579Z,83.45
2024-03-10T05:24:14.800Z,83.25
2024-03-10T05:26:42.598Z,83.76
2024-03-10T05:29:10.537Z,84.03
2024-03-10T05:31:38.518Z,83.40
2024-03-10T05:34:06.586Z,82.80
2024-03-10T05:36:35.098Z,82.15
2024-03-10T05:39:03.535Z,83.35
2024-03-10T05:41:31.521Z,82.30
2024-03-10T05:44:01.042Z,83.16
2024-03-10T05:46:28.881Z,82.92
2024-03-10T05:48:57.358Z,82.90
2024-03-10T05:51:25.805Z,83.19
2024-03-10T05:53:56.426Z,82.07
2024-03-10T05:56:24.430Z,82.59
2024-03-10T05:58:52.409Z,82.89
2024-03-10T06:01:25.365Z,82.34
2024-03-10T06:03:53.776Z,81.33
2024-03-10T06:06:24.808Z,81.25
2024-03-10T06:08:55.528Z,81.05
2024-03-10T06:11:24.634Z,82.12
2024-03-10T06:13:55.531Z,81.42
2024-03-10T06:16:25.709Z,81.83
2024-03-10T06:18:57.367Z,81.55
2024-03-10T06:21:48.733Z,80.84
2024-03-10T06:24:35.263Z,81.61
2024-03-10T06:27:03.726Z,81.51
2024-03-10T06:29:33.351Z,81.17
2024-03-10T06:32:01.653Z,81.04
2024-03-10T06:34:29.620Z,80.85
2024-03-10T06:37:01.808Z,80.63
2024-03-10T06:39:29.605Z,80.42
2024-03-10T06:42:01.545Z,80.07
2024-03-10T06:44:29.409Z,79.43
2024-03-10T06:46:57.279Z,79.28
2024-03-10T06:49:25.074Z,79.67
2024-03-10T06:51:58.425Z,78.94
2024-03-10T06:54:26.178Z,78.83
2024-03-10T06:56:56.126Z,78.50
2024-03-10T06:59:24.332Z,78.64
2024-03-10T07:01:56.872Z,78.06
2024-03-10T07:04:25.270Z,78.29
2024-03-10T07:06:56.504Z,78.29
2024-03-10T07:09:24.456Z,77.45
2024-03-10T07:11:55.499Z,77.56
2024-03-10T07:14:23.577Z,77.47
2024-03-10T07:16:55.538Z,77.20
2024-03-10T07:19:23.266Z,76.04
2024-03-10T07:21:54.331Z,75.71
2024-03-10T07:24:22.053Z,75.92
2024-03-10T07:26:52.140Z,75.07
2024-03-10T07:29:20.090Z,73.72
2024-03-10T07:31:48.430Z,72.97
2024-03-10T07:34:21.771Z,70.26
2024-03-10T07:36:52.129Z,71.04
2024-03-10T07:39:19.920Z,68.51
2024-03-10T07:41:47.752Z,66.94
2024-03-10T07:44:17.296Z,65.28
2024-03-10T07:46:45.247Z,68.26
2024-03-10T07:49:13.315Z,66.32
2024-03-10T07:51:41.082Z,64.53
2024-03-10T07:54:09.482Z,63.59
2024-03-10T07:56:37.436Z,63.21
2024-03-10T07:59:05.326Z,62.81
2024-03-10T08:01:33.154Z,62.82
2024-03-10T08:04:01.364Z,63.18
2024-03-10T08:06:29.309Z,63.03
2024-03-10T08:08:57.459Z,62.55
2024-03-10T08:11:25.367Z,62.64
2024-03-10T08:13:53.314Z,60.87
2024-03-10T08:16:21.254Z,58.69
2024-03-10T08:18:51.021Z,58.68
2024-03-10T08:21:20.037Z,58.31
2024-03-10T08:23:47.798Z,58.71
2024-03-10T08:26:15.779Z,57.10
2024-03-10T08:28:44.064Z,57.58
2024-03-10T08:31:14.032Z,56.61
2024-03-10T08:33:41.864Z,56.68
2024-03-10T08:36:10.445Z,57.41
2024-03-10T08:38:38.527Z,56.59
2024-03-10T08:41:06.501Z,56.73
2024-03-10T08:43:36.176Z,55.89
2024-03-10T08:46:04.505Z,54.94
2024-03-10T08:48:32.368Z,53.08
2024-03-10T08:51:00.151Z,52.91
2024-03-10T08:53:28.502Z,51.59
2024-03-10T08:55:56.955Z,51.07
2024-03-10T08:58:25.865Z,51.38
2024-03-10T09:00:53.781Z,51.27
2024-03-10T09:03:23.723Z,51.19
2024-03-10T09:05:52.278Z,51.74
2024-03-10T09:08:20.431Z,50.53
2024-03-10T09:10:53.769Z,49.10
2024-03-10T09:13:30.704Z,48.12
2024-03-10T09:15:58.869Z,47.53
2024-03-10T09:18:27.275Z,48.16
2024-03-10T09:20:57.593Z,48.43
2024-03-10T09:23:26.615Z,48.44
2024-03-10T09:25:55.985Z,49.05
2024-03-10T09:28:25.315Z,49.01
2024-03-10T09:30:53.095Z,49.54
2024-03-10T09:33:23.651Z,50.51
2024-03-10T09:35:55.363Z,50.86
2024-03-10T09:38:23.829Z,50.77
2024-03-10T09:40:52.628Z,50.72
2024-03-10T09:43:22.619Z,51.24
2024-03-10T09:45:53.417Z,51.51
2024-03-10T09:48:23.588Z,51.79
2024-03-10T09:50:53.285Z,51.25
2024-03-10T09:53:21.319Z,51.21
2024-03-10T09:55:50.008Z,51.01
2024-03-10T09:58:29.757Z,50.83
2024-03-10T10:01:13.455Z,50.13
2024-03-10T10:03:51.581Z,49.31
2024-03-10T10:06:21.940Z,49.53
2024-03-10T10:08:56.121Z,48.03
2024-03-10T10:11:27.191Z,47.58
2024-03-10T10:14:11.054Z,47.56
2024-03-10T10:16:49.130Z,48.03
2024-03-10T10:19:18.216Z,47.82
2024-03-10T10:21:46.277Z,47.85
2024-03-10T10:24:15.276Z,48.18
2024-03-10T10:26:43.337Z,48.53
2024-03-10T10:29:12.095Z,47.76
2024-03-10T10:31:40.051Z,48.05
2024-03-10T10:34:15.703Z,48.56
2024-03-10T10:36:45.004Z,48.78
2024-03-10T10:39:17.813Z,48.99
2024-03-10T10:41:47.016Z,49.16
2024-03-10T10:44:16.302Z,47.69
2024-03-10T10:46:45.781Z,47.65
2024-03-10T10:49:14.547Z,48.40
2024-03-10T10:51:45.966Z,48.24
2024-03-10T10:54:14.184Z,47.78
2024-03-10T10:56:42.229Z,48.21
2024-03-10T10:59:14.182Z,47.23
2024-03-10T11:01:46.629Z,45.83
2024-03-10T11:04:15.067Z,46.23
2024-03-10T11:06:43.821Z,46.10
2024-03-10T11:09:16.136Z,46.04
2024-03-10T11:11:47.528Z,46.55
2024-03-10T11:14:18.215Z,47.12
2024-03-10T11:16:46.450Z,47.51
2024-03-10T11:19:19.663Z,47.67
2024-03-10T11:21:51.598Z,48.22
2024-03-10T11:24:22.637Z,48.30
2024-03-10T11:27:11.578Z,48.61
2024-03-10T11:29:41.058Z,48.70
2024-03-10T11:32:34.766Z,49.00
2024-03-10T11:35:15.192Z,49.24
2024-03-10T11:37:44.336Z,48.75
2024-03-10T11:40:17.190Z,49.24
2024-03-10T11:42:46.512Z,49.42
2024-03-10T11:45:15.812Z,49.27
2024-03-10T11:47:59.272Z,48.65
2024-03-10T11:50:27.534Z,48.52
2024-03-10T11:52:55.404Z,48.94
2024-03-10T11:55:24.397Z,48.26
2024-03-10T11:57:55.385Z,47.77
2024-03-10T12:00:27.506Z,48.11
2024-03-10T12:02:56.509Z,47.46
2024-03-10T12:05:24.627Z,47.96
2024-03-10T12:07:59.299Z,47.50
2024-03-10T12:10:29.267Z,47.65
2024-03-10T12:12:59.123Z,47.87
2024-03-10T12:15:28.008Z,47.21
2024-03-10T12:17:56.226Z,47.89
2024-03-10T12:20:25.066Z,46.91
2024-03-10T12:22:54.421Z,47.81
2024-03-10T12:25:22.453Z,47.44
2024-03-10T12:27:50.754Z,48.03
2024-03-10T12:30:20.768Z,47.99
2024-03-10T12:32:54.608Z,47.94
2024-03-10T12:35:23.231Z,48.30
2024-03-10T12:37:52.875Z,47.80
2024-03-10T12:40:22.218Z,47.79
2024-03-10T12:42:52.280Z,48.34
2024-03-10T12:45:20.747Z,47.55
2024-03-10T12:47:52.307Z,47.82
2024-03-10T12:50:21.337Z,48.29
2024-03-10T12:52:49.636Z,48.48
2024-03-10T12:55:19.999Z,47.95
2024-03-10T12:57:47.834Z,47.65
2024-03-10T13:00:30.529Z,47.48
2024-03-10T13:02:59.343Z,47.27
2024-03-10T13:05:29.228Z,48.17
2024-03-10T13:07:58.908Z,48.10
2024-03-10T13:10:27.154Z,47.75
2024-03-10T13:12:55.069Z,48.19
2024-03-10T13:15:23.378Z,48.01
2024-03-10T13:17:51.668Z,47.95
2024-03-10T13:20:22.281Z,48.49
2024-03-10T13:22:50.534Z,48.15
2024-03-10T13:25:18.684Z,47.89
2024-03-10T13:27:46.561Z,48.32
2024-03-10T13:30:15.664Z,48.17
2024-03-10T13:32:43.893Z,48.47
2024-03-10T13:35:14.421Z,48.20
2024-03-10T13:37:42.671Z,48.56
2024-03-10T13:40:18.364Z,48.81
2024-03-10T13:42:47.427Z,48.49
2024-03-10T13:45:23.257Z,48.48
2024-03-10T13:48:00.304Z,48.56
2024-03-10T13:50:29.811Z,48.65
2024-03-10T13:52:57.909Z,48.42
2024-03-10T13:55:27.193Z,48.23
2024-03-10T13:57:55.501Z,48.47
2024-03-10T14:00:26.462Z,48.64
2024-03-10T14:02:54.941Z,48.79
2024-03-10T14:05:25.736Z,49.04
2024-03-10T14:07:54.132Z,48.93
2024-03-10T14:10:22.236Z,48.88
2024-03-10T14:12:50.053Z,48.97
2024-03-10T14:15:21.797Z,48.83
2024-03-10T14:17:49.856Z,49.11
2024-03-10T14:20:27.260Z,49.04
2024-03-10T14:22:55.703Z,49.10
2024-03-10T14:25:23.937Z,48.91
2024-03-10T14:27:53.456Z,49.21
2024-03-10T14:30:28.088Z,49.57
2024-03-10T14:32:58.050Z,49.84
2024-03-10T14:35:27.588Z,49.42
2024-03-10T14:37:57.230Z,49.71
2024-03-10T14:40:25.689Z,49.86
2024-03-10T14:42:56.338Z,49.69
2024-03-10T14:45:24.948Z,50.14
2024-03-10T14:47:53.905Z,50.19
2024-03-10T14:50:26.997Z,50.23
2024-03-10T14:52:56.477Z,50.26
2024-03-10T14:55:25.839Z,50.50
2024-03-10T14:57:54.654Z,50.81
2024-03-10T15:00:41.101Z,51.14
2024-03-10T15:03:16.669Z,50.88
2024-03-10T15:05:46.741Z,51.07
2024-03-10T15:08:18.028Z,50.89
2024-03-10T15:10:52.736Z,50.70
2024-03-10T15:13:24.124Z,50.83
2024-03-10T15:15:52.929Z,51.15
2024-03-10T15:18:21.040Z,51.04
2024-03-10T15:20:49.088Z,50.95
2024-03-10T15:23:20.233Z,51.09
2024-03-10T15:25:50.466Z,50.82
2024-03-10T15:28:21.672Z,51.44
2024-03-10T15:30:49.646Z,51.88
2024-03-10T15:33:18.195Z,51.86
2024-03-10T15:35:46.359Z,52.04
2024-03-10T15:38:15.186Z,52.02
2024-03-10T15:40:44.314Z,52.45
2024-03-10T15:43:13.797Z,52.36
2024-03-10T15:45:43.595Z,52.77
2024-03-10T15:48:12.707Z,52.77
2024-03-10T15:50:41.238Z,52.94
2024-03-10T15:53:11.752Z,52.79
2024-03-10T15:55:40.398Z,53.07
2024-03-10T15:58:09.186Z,53.13
2024-03-10T16:00:38.470Z,53.11
2024-03-10T16:03:14.546Z,53.08
2024-03-10T16:05:50.364Z,52.99
2024-03-10T16:08:19.959Z,53.22
2024-03-10T16:10:50.290Z,53.26
2024-03-10T16:13:37.839Z,53.36
2024-03-10T16:16:06.960Z,52.97
2024-03-10T16:18:38.398Z,53.28
2024-03-10T16:21:11.423Z,53.09
2024-03-10T16:23:39.740Z,53.11
2024-03-10T16:26:08.029Z,52.85
2024-03-10T16:28:36.019Z,52.81
2024-03-10T16:31:04.115Z,52.90
2024-03-10T16:33:31.971Z,52.87
2024-03-10T16:35:59.739Z,53.08
2024-03-10T16:38:27.529Z,53.00
2024-03-10T16:40:56.535Z,53.51
2024-03-10T16:43:25.052Z,53.23
2024-03-10T16:45:53.217Z,53.49
2024-03-10T16:48:21.207Z,53.36
2024-03-10T16:50:50.886Z,53.66
2024-03-10T16:53:18.805Z,53.46
2024-03-10T16:55:49.076Z,53.10
2024-03-10T16:58:20.491Z,53.48
2024-03-10T17:00:48.512Z,53.49
2024-03-10T17:03:16.886Z,53.33
2024-03-10T17:05:45.168Z,53.75
2024-03-10T17:08:14.882Z,53.88
2024-03-10T17:10:45.389Z,54.25
2024-03-10T17:13:15.048Z,54.21
2024-03-10T17:15:43.625Z,54.87
2024-03-10T17:18:14.348Z,54.23
2024-03-10T17:20:42.898Z,54.39
2024-03-10T17:23:13.931Z,54.06
2024-03-10T17:25:41.843Z,54.52
2024-03-10T17:28:09.786Z,54.19
2024-03-10T17:30:37.607Z,54.42
2024-03-10T17:33:05.968Z,54.19
2024-03-10T17:35:35.428Z,54.27
2024-03-10T17:38:05.513Z,54.06
2024-03-10T17:40:33.662Z,53.84
2024-03-10T17:43:01.635Z,53.52
2024-03-10T17:45:29.874Z,53.21
2024-03-10T17:48:00.547Z,52.98
2024-03-10T17:50:28.526Z,53.20
2024-03-10T17:52:56.718Z,53.27
2024-03-10T17:55:24.467Z,53.32
2024-03-10T17:57:52.719Z,53.16
2024-03-10T18:00:23.868Z,52.99
2024-03-10T18:02:52.005Z,52.98
2024-03-10T18:05:20.131Z,52.78
2024-03-10T18:07:52.323Z,52.67
2024-03-10T18:10:22.490Z,52.30
2024-03-10T18:12:54.854Z,52.43
2024-03-10T18:15:25.312Z,52.39
2024-03-10T18:17:54.291Z,52.04
2024-03-10T18:20:26.124Z,51.92
2024-03-10T18:22:54.243Z,51.95
2024-03-10T18:25:22.875Z,51.50
2024-03-10T18:27:51.938Z,51.73
2024-03-10T18:30:19.773Z,51.40
2024-03-10T18:32:48.772Z,51.27
2024-03-10T18:35:17.489Z,51.45
2024-03-10T18:37:46.074Z,51.39
2024-03-10T18:40:15.480Z,51.38
2024-03-10T18:42:44.347Z,51.12
2024-03-10T18:45:14.212Z,51.50
2024-03-10T18:47:42.463Z,51.25
2024-03-10T18:50:12.849Z,51.30
2024-03-10T18:52:42.482Z,51.64
2024-03-10T18:55:11.540Z,52.22
2024-03-10T18:57:39.719Z,52.64
2024-03-10T19:00:08.482Z,52.72
2024-03-10T19:02:36.891Z,52.77
2024-03-10T19:05:05.082Z,52.90
2024-03-10T19:07:32.986Z,52.86
2024-03-10T19:10:00.743Z,52.83
2024-03-10T19:12:28.565Z,52.80
2024-03-10T19:14:56.482Z,53.03
2024-03-10T19:17:26.234Z,52.82
2024-03-10T19:19:57.360Z,52.89
2024-03-10T19:22:25.234Z,52.90
2024-03-10T19:24:53.088Z,52.71
2024-03-10T19:27:20.905Z,52.74
2024-03-10T19:29:48.760Z,52.65
2024-03-10T19:32:16.553Z,52.43
2024-03-10T19:34:44.286Z,52.37
2024-03-10T19:37:11.996Z,52.75
2024-03-10T19:39:39.695Z,52.71
2024-03-10T19:42:07.671Z,52.46
2024-03-10T19:44:36.411Z,52.60
2024-03-10T19:47:06.343Z,52.69
2024-03-10T19:49:37.331Z,52.84
2024-03-10T19:52:05.449Z,52.61
2024-03-10T19:54:34.064Z,52.57
2024-03-10T19:57:02.024Z,53.18
2024-03-10T19:59:30.430Z,53.15
2024-03-10T20:02:00.674Z,53.23
2024-03-10T20:04:30.347Z,53.43
2024-03-10T20:06:58.337Z,53.44
2024-03-10T20:09:26.182Z,53.39
2024-03-10T20:11:55.051Z,53.54
2024-03-10T20:14:23.011Z,53.68
2024-03-10T20:16:50.938Z,54.01
2024-03-10T20:19:18.813Z,54.03
2024-03-10T20:21:46.549Z,54.18
2024-03-10T20:24:16.048Z,54.52
2024-03-10T20:26:44.061Z,54.65
2024-03-10T20:29:11.833Z,54.78
2024-03-10T20:31:39.855Z,54.80
2024-03-10T20:34:07.737Z,55.00
2024-03-10T20:36:37.311Z,54.98
2024-03-10T20:39:05.717Z,55.31
2024-03-10T20:41:33.461Z,55.75
2024-03-10T20:44:01.421Z,55.71
2024-03-10T20:46:34.628Z,56.02
2024-03-10T20:49:06.905Z,56.49
2024-03-10T20:51:35.146Z,56.10
2024-03-10T20:54:04.394Z,56.57
2024-03-10T20:56:32.175Z,56.59
2024-03-10T20:59:00.203Z,56.51
2024-03-10T21:01:28.475Z,57.29
2024-03-10T21:03:56.455Z,57.00
2024-03-10T21:06:24.549Z,57.14
2024-03-10T21:08:52.314Z,57.36
2024-03-10T21:11:20.343Z,57.50
2024-03-10T21:13:49.648Z,57.60
2024-03-10T21:16:17.382Z,57.98
2024-03-10T21:18:45.379Z,58.34
2024-03-10T21:21:13.190Z,58.32
2024-03-10T21:23:41.280Z,58.26
2024-03-10T21:26:09.597Z,58.73
2024-03-10T21:28:37.962Z,58.97
2024-03-10T21:31:05.720Z,58.78
2024-03-10T21:33:33.732Z,59.09
2024-03-10T21:36:03.511Z,59.05
2024-03-10T21:38:31.278Z,59.62
2024-03-10T21:41:03.977Z,60.09
2024-03-10T21:43:31.798Z,60.43
2024-03-10T21:46:04.192Z,60.53
2024-03-10T21:48:32.022Z,60.62
2024-03-10T21:51:00.336Z,60.90
2024-03-10T21:53:28.126Z,61.15
2024-03-10T21:55:55.942Z,61.32
2024-03-10T21:58:23.855Z,62.11
2024-03-10T22:00:51.671Z,62.88
2024-03-10T22:03:22.544Z,63.59
2024-03-10T22:05:51.777Z,64.61
2024-03-10T22:08:19.790Z,65.14
2024-03-10T22:10:47.503Z,64.95
2024-03-10T22:13:15.358Z,66.09
2024-03-10T22:15:43.349Z,66.04
2024-03-10T22:18:11.575Z,66.70
2024-03-10T22:20:39.625Z,67.36
2024-03-10T22:23:07.699Z,67.92
2024-03-10T22:25:35.629Z,68.43
2024-03-10T22:28:04.030Z,68.06
2024-03-10T22:30:33.037Z,67.89
2024-03-10T22:33:01.394Z,68.66
2024-03-10T22:35:29.483Z,68.41
2024-03-10T22:37:59.047Z,69.03
2024-03-10T22:40:29.140Z,69.44
2024-03-10T22:42:59.355Z,69.53
2024-03-10T22:45:31.420Z,69.89
2024-03-10T22:48:02.417Z,69.42
2024-03-10T22:50:31.405Z,70.20
2024-03-10T22:53:04.021Z,69.77
2024-03-10T22:55:33.458Z,69.72
2024-03-10T22:58:02.460Z,70.10
2024-03-10T23:00:37.214Z,70.93
2024-03-10T23:03:08.448Z,70.64
2024-03-10T23:05:37.306Z,70.70
2024-03-10T23:08:06.908Z,70.91
2024-03-10T23:10:43.351Z,70.94
2024-03-10T23:13:11.720Z,70.94
2024-03-10T23:15:40.855Z,70.93
2024-03-10T23:18:09.164Z,70.49
2024-03-10T23:20:37.338Z,70.44
2024-03-10T23:23:05.706Z,70.46
2024-03-10T23:25:33.600Z,70.37
2024-03-10T23:28:01.431Z,70.75
2024-03-10T23:30:29.283Z,71.27
2024-03-10T23:32:57.527Z,70.80
2024-03-10T23:35:26.016Z,71.37
2024-03-10T23:37:54.865Z,71.23
2024-03-10T23:40:24.739Z,71.39
2024-03-10T23:42:53.684Z,71.24
2024-03-10T23:45:22.004Z,71.83
2024-03-10T23:47:52.145Z,71.11
2024-03-10T23:50:22.053Z,71.36
2024-03-10T23:52:54.068Z,71.35
2024-03-10T23:55:34.858Z,71.66
2024-03-10T23:58:02.609Z,71.20
